METAR Data
IDs: Format: Raw Decoded Include TAF

Data at: 1347 UTC 25 Nov 2020

PTKK 251250Z 06012G22KT 15SM FEW014TCU BKN280 28/25 A2976 RMK SHRAB32E46 TCU SW SLP079 T02790249